createdAt,value
2023-05-09T00:01:00.467Z,98.87
2023-05-09T00:02:09.660Z,101.31
2023-05-09T00:03:18.812Z,101.8
2023-05-09T00:04:27.055Z,100.58
2023-05-09T00:05:36.184Z,100.58
2023-05-09T00:06:45.390Z,100.09
2023-05-09T00:07:54.539Z,102.53
2023-05-09T00:09:03.697Z,101.07
2023-05-09T00:10:12.877Z,100.09
2023-05-09T00:11:22.060Z,100.34
2023-05-09T00:12:31.236Z,100.83
2023-05-09T00:13:40.466Z,100.83
2023-05-09T00:14:49.584Z,99.6
2023-05-09T00:15:58.768Z,99.6
2023-05-09T00:17:07.898Z,101.31
2023-05-09T00:18:17.099Z,101.56
2023-05-09T00:19:26.257Z,99.12
2023-05-09T00:20:34.435Z,101.07
2023-05-09T00:21:43.638Z,101.56
2023-05-09T00:22:52.779Z,100.09
2023-05-09T00:24:01.955Z,100.34
2023-05-09T00:25:11.147Z,100.34
2023-05-09T00:26:20.302Z,99.85
2023-05-09T00:27:29.474Z,99.6
2023-05-09T00:28:38.643Z,100.83
2023-05-09T00:29:47.821Z,101.56
2023-05-09T00:30:56.979Z,97.9
2023-05-09T00:32:06.151Z,100.58
2023-05-09T00:34:24.520Z,98.14
2023-05-09T00:35:32.700Z,99.6
2023-05-09T00:36:40.926Z,99.6
2023-05-09T00:37:49.137Z,99.85
2023-05-09T00:38:57.270Z,98.87
2023-05-09T00:40:06.485Z,99.36
2023-05-09T00:41:15.605Z,101.07
2023-05-09T00:42:24.834Z,100.83
2023-05-09T00:43:34.045Z,99.85
2023-05-09T00:44:43.156Z,97.9
2023-05-09T00:45:52.309Z,101.07
2023-05-09T00:47:01.545Z,100.58
2023-05-09T00:48:10.653Z,98.87
2023-05-09T00:49:19.825Z,97.16
2023-05-09T00:50:29.091Z,102.53
2023-05-09T00:51:38.162Z,99.36
2023-05-09T00:52:47.387Z,100.83
2023-05-09T00:53:55.557Z,100.34
2023-05-09T00:55:04.687Z,101.31
2023-05-09T00:56:13.932Z,101.31
2023-05-09T00:57:23.046Z,101.07
2023-05-09T00:58:32.208Z,99.12
2023-05-09T00:59:41.392Z,101.31
2023-05-09T01:00:50.588Z,101.31
2023-05-09T01:01:59.759Z,100.09
2023-05-09T01:03:08.895Z,101.56
2023-05-09T01:04:18.072Z,100.09
2023-05-09T01:05:27.261Z,100.83
2023-05-09T01:06:36.506Z,100.34
2023-05-09T01:07:45.604Z,100.34
2023-05-09T01:08:53.780Z,98.63
2023-05-09T01:10:02.955Z,99.12
2023-05-09T01:11:12.135Z,98.87
2023-05-09T01:12:21.301Z,99.6
2023-05-09T01:13:30.469Z,99.12
2023-05-09T01:14:39.742Z,100.34
2023-05-09T01:15:48.831Z,95.94
2023-05-09T01:16:58.004Z,95.45
2023-05-09T01:18:07.166Z,96.19
2023-05-09T01:19:16.328Z,93.99
2023-05-09T01:20:25.504Z,94.72
2023-05-09T01:21:34.695Z,95.94
2023-05-09T01:22:43.855Z,94.48
2023-05-09T01:23:52.042Z,92.04
2023-05-09T01:26:10.374Z,90.82
2023-05-09T01:27:18.651Z,90.82
2023-05-09T01:28:27.778Z,91.06
2023-05-09T01:29:36.929Z,88.86
2023-05-09T01:30:46.096Z,89.35
2023-05-09T01:31:55.270Z,88.37
2023-05-09T01:33:04.447Z,88.13
2023-05-09T01:34:13.613Z,85.93
2023-05-09T01:35:22.793Z,86.66
2023-05-09T01:36:31.957Z,88.37
2023-05-09T01:37:41.134Z,88.86
2023-05-09T01:38:50.312Z,86.42
2023-05-09T01:39:59.495Z,88.86
2023-05-09T01:41:08.650Z,88.13
2023-05-09T01:42:16.836Z,88.13
2023-05-09T01:43:26.158Z,87.4
2023-05-09T01:44:35.168Z,86.91
2023-05-09T01:45:44.396Z,87.4
2023-05-09T01:46:53.522Z,85.69
2023-05-09T01:48:02.749Z,85.2
2023-05-09T01:49:11.866Z,85.93
2023-05-09T01:50:21.048Z,85.44
2023-05-09T01:51:30.214Z,85.2
2023-05-09T01:52:39.404Z,85.44
2023-05-09T01:53:48.570Z,86.42
2023-05-09T01:54:57.719Z,85.44
2023-05-09T01:56:06.904Z,84.71
2023-05-09T01:57:15.109Z,84.96
2023-05-09T01:58:24.272Z,84.71
2023-05-09T01:59:33.432Z,83.74
2023-05-09T02:00:42.611Z,84.47
2023-05-09T02:01:51.768Z,84.71
2023-05-09T02:03:00.947Z,84.47
2023-05-09T02:04:10.136Z,84.71
2023-05-09T02:05:19.399Z,84.71
2023-05-09T02:06:28.495Z,84.47
2023-05-09T02:07:37.644Z,85.44
2023-05-09T02:08:46.820Z,87.64
2023-05-09T02:09:55.999Z,88.62
2023-05-09T02:11:05.156Z,89.84
2023-05-09T02:12:13.356Z,88.37
2023-05-09T02:13:22.515Z,88.62
2023-05-09T02:14:31.696Z,90.08
2023-05-09T02:15:40.867Z,96.43
2023-05-09T02:16:50.033Z,93.75
2023-05-09T02:17:59.205Z,93.01
2023-05-09T02:19:08.382Z,95.45
2023-05-09T02:20:17.545Z,95.7
2023-05-09T02:21:26.743Z,94.97
2023-05-09T02:22:35.911Z,96.67
2023-05-09T02:23:45.066Z,100.09
2023-05-09T02:24:54.246Z,101.07
2023-05-09T02:26:03.410Z,99.85
2023-05-09T02:27:11.604Z,101.8
2023-05-09T02:28:20.764Z,100.58
2023-05-09T02:29:29.947Z,100.09
2023-05-09T02:30:39.257Z,98.63
2023-05-09T02:31:48.299Z,100.58
2023-05-09T02:32:57.471Z,100.34
2023-05-09T02:34:06.649Z,98.38
2023-05-09T02:35:15.801Z,98.38
2023-05-09T02:36:24.997Z,96.19
2023-05-09T02:37:34.155Z,100.09
2023-05-09T02:38:43.324Z,96.67
2023-05-09T02:39:52.516Z,99.6
2023-05-09T02:41:01.722Z,98.87
2023-05-09T02:42:09.897Z,96.92
2023-05-09T02:43:19.019Z,100.83
2023-05-09T02:44:28.203Z,98.63
2023-05-09T02:45:37.373Z,98.63
2023-05-09T02:46:46.542Z,98.87
2023-05-09T02:47:55.729Z,97.9
2023-05-09T02:49:04.946Z,96.92
2023-05-09T02:50:14.078Z,97.9
2023-05-09T02:51:23.261Z,96.67
2023-05-09T02:52:32.458Z,97.9
2023-05-09T02:53:41.586Z,95.45
2023-05-09T02:54:50.780Z,96.67
2023-05-09T02:55:59.976Z,95.21
2023-05-09T02:57:08.289Z,95.94
2023-05-09T02:58:17.379Z,95.45
2023-05-09T02:59:26.465Z,96.43
2023-05-09T03:00:35.635Z,97.41
2023-05-09T03:01:44.792Z,95.7
2023-05-09T03:02:53.969Z,94.48
2023-05-09T03:04:03.151Z,95.45
2023-05-09T03:05:12.310Z,96.67
2023-05-09T03:06:21.487Z,93.75
2023-05-09T03:07:30.672Z,94.97
2023-05-09T03:08:39.847Z,91.55
2023-05-09T03:09:49.009Z,93.5
2023-05-09T03:10:58.199Z,91.55
2023-05-09T03:12:06.711Z,91.55
2023-05-09T03:13:15.530Z,92.04
2023-05-09T03:14:24.703Z,91.55
2023-05-09T03:15:33.974Z,90.08
2023-05-09T03:16:43.064Z,94.48
2023-05-09T03:17:52.240Z,90.08
2023-05-09T03:19:01.429Z,91.79
2023-05-09T03:20:10.598Z,89.84
2023-05-09T03:21:19.736Z,89.11
2023-05-09T03:22:28.933Z,90.82
2023-05-09T03:23:38.100Z,90.57
2023-05-09T03:24:47.271Z,90.57
2023-05-09T03:25:56.423Z,92.77
2023-05-09T03:27:04.624Z,90.82
2023-05-09T03:28:13.835Z,88.37
2023-05-09T03:29:22.968Z,88.62
2023-05-09T03:30:32.139Z,89.84
2023-05-09T03:31:41.315Z,86.66
2023-05-09T03:32:50.501Z,87.4
2023-05-09T03:33:59.654Z,88.13
2023-05-09T03:35:08.827Z,89.11
2023-05-09T03:36:18.012Z,89.35
2023-05-09T03:37:27.179Z,88.62
2023-05-09T03:38:36.347Z,89.84
2023-05-09T03:40:54.689Z,85.69
2023-05-09T03:42:02.880Z,85.44
2023-05-09T03:43:12.050Z,86.18
2023-05-09T03:44:21.224Z,84.71
2023-05-09T03:45:30.400Z,86.66
2023-05-09T03:46:39.580Z,85.44
2023-05-09T03:47:48.728Z,85.69
2023-05-09T03:48:57.910Z,83.74
2023-05-09T03:50:07.084Z,82.51
2023-05-09T03:51:16.251Z,83
2023-05-09T03:52:25.433Z,83.49
2023-05-09T03:53:34.594Z,83.74
2023-05-09T03:54:43.772Z,83
2023-05-09T03:55:52.949Z,82.51
2023-05-09T03:57:01.178Z,85.2
2023-05-09T03:58:10.302Z,84.96
2023-05-09T03:59:19.507Z,84.96
2023-05-09T04:00:28.651Z,85.93
2023-05-09T04:01:37.827Z,87.89
2023-05-09T04:02:47.136Z,87.89
2023-05-09T04:03:56.182Z,92.04
2023-05-09T04:05:05.331Z,89.84
2023-05-09T04:06:14.561Z,90.57
2023-05-09T04:07:23.690Z,92.04
2023-05-09T04:08:32.856Z,94.97
2023-05-09T04:09:42.039Z,94.48
2023-05-09T04:10:51.202Z,97.41
2023-05-09T04:11:59.395Z,97.9
2023-05-09T04:13:08.558Z,102.53
2023-05-09T04:14:17.731Z,99.6
2023-05-09T04:15:25.933Z,101.8
2023-05-09T04:16:34.121Z,101.07
2023-05-09T04:17:43.287Z,100.58
2023-05-09T04:18:52.469Z,99.36
2023-05-09T04:20:01.633Z,98.87
2023-05-09T04:21:10.803Z,98.87
2023-05-09T04:22:19.975Z,101.07
2023-05-09T04:23:29.153Z,98.14
2023-05-09T04:24:38.356Z,97.9
2023-05-09T04:25:47.530Z,99.6
2023-05-09T04:26:56.664Z,99.85
2023-05-09T04:28:05.851Z,99.85
2023-05-09T04:29:15.011Z,100.58
2023-05-09T04:30:24.202Z,100.09
2023-05-09T04:31:32.378Z,101.07
2023-05-09T04:32:41.555Z,102.05
2023-05-09T04:33:50.716Z,98.63
2023-05-09T04:34:59.893Z,113.28
2023-05-09T04:36:09.136Z,102.29
2023-05-09T04:37:18.236Z,101.07
2023-05-09T04:38:27.471Z,99.12
2023-05-09T04:39:36.623Z,98.63
2023-05-09T04:40:44.792Z,97.65
2023-05-09T04:41:52.966Z,100.58
2023-05-09T04:43:02.139Z,98.63
2023-05-09T04:44:11.311Z,97.16
2023-05-09T04:45:20.480Z,99.12
2023-05-09T04:46:29.679Z,99.85
2023-05-09T04:47:38.828Z,98.63
2023-05-09T04:48:48.003Z,98.87
2023-05-09T04:49:57.186Z,106.2
2023-05-09T04:51:06.408Z,100.09
2023-05-09T04:52:15.538Z,99.85
2023-05-09T04:53:24.699Z,99.36
2023-05-09T04:54:33.928Z,97.41
2023-05-09T04:55:43.050Z,97.41
2023-05-09T04:56:51.226Z,97.41
2023-05-09T04:58:00.556Z,96.92
2023-05-09T04:59:09.577Z,99.6
2023-05-09T05:00:18.798Z,97.41
2023-05-09T05:01:27.921Z,101.07
2023-05-09T05:02:37.106Z,98.63
2023-05-09T05:03:46.294Z,98.87
2023-05-09T05:04:55.428Z,99.12
2023-05-09T05:06:04.605Z,99.6
2023-05-09T05:07:13.776Z,97.41
2023-05-09T05:08:22.954Z,99.85
2023-05-09T05:09:32.119Z,99.85
2023-05-09T05:10:41.291Z,97.65
2023-05-09T05:11:49.487Z,101.31
2023-05-09T05:12:58.644Z,98.38
2023-05-09T05:14:07.824Z,98.63
2023-05-09T05:15:16.998Z,97.9
2023-05-09T05:17:35.345Z,99.36
2023-05-09T05:18:43.541Z,99.85
2023-05-09T05:19:52.704Z,100.34
2023-05-09T05:21:01.867Z,101.07
2023-05-09T05:22:11.050Z,98.14
2023-05-09T05:23:20.239Z,99.36
2023-05-09T05:24:29.438Z,99.6
2023-05-09T05:25:38.575Z,99.85
2023-05-09T05:26:47.781Z,99.36
2023-05-09T05:27:56.908Z,100.58
2023-05-09T05:29:06.086Z,99.85
2023-05-09T05:30:15.308Z,101.07
2023-05-09T05:31:24.550Z,99.6
2023-05-09T05:32:33.593Z,125.97
2023-05-09T05:33:41.863Z,99.85
2023-05-09T05:34:50.969Z,100.34
2023-05-09T05:36:00.129Z,99.12
2023-05-09T05:37:09.300Z,110.1
2023-05-09T05:38:17.575Z,98.63
2023-05-09T05:39:25.685Z,97.16
2023-05-09T05:40:34.863Z,97.9
2023-05-09T05:41:43.247Z,96.92
2023-05-09T05:42:52.305Z,98.38
2023-05-09T05:44:01.399Z,98.63
2023-05-09T05:45:10.672Z,96.19
2023-05-09T05:46:19.843Z,97.65
2023-05-09T05:47:29.101Z,98.63
2023-05-09T05:48:38.234Z,97.41
2023-05-09T05:49:47.355Z,102.05
2023-05-09T05:50:56.459Z,96.19
2023-05-09T05:52:05.643Z,100.58
2023-05-09T05:53:14.768Z,96.43
2023-05-09T05:54:24.145Z,97.16
2023-05-09T05:55:33.171Z,99.85
2023-05-09T05:56:41.321Z,98.63
2023-05-09T05:57:50.466Z,97.41
2023-05-09T05:58:59.665Z,98.87
2023-05-09T06:00:08.805Z,99.36
2023-05-09T06:01:17.984Z,99.36
2023-05-09T06:02:27.183Z,99.6
2023-05-09T06:03:36.379Z,98.63
2023-05-09T06:04:45.572Z,100.58
2023-05-09T06:05:54.703Z,102.05
2023-05-09T06:07:03.881Z,102.53
2023-05-09T06:08:13.065Z,102.78
2023-05-09T06:09:22.193Z,102.29
2023-05-09T06:10:31.361Z,106.2
2023-05-09T06:11:39.733Z,110.35
2023-05-09T06:12:48.798Z,102.53
2023-05-09T06:13:57.889Z,99.12
2023-05-09T06:15:07.064Z,99.36
2023-05-09T06:16:16.262Z,100.34
2023-05-09T06:17:25.406Z,101.8
2023-05-09T06:18:34.583Z,100.34
2023-05-09T06:19:43.767Z,101.07
2023-05-09T06:20:52.953Z,101.56
2023-05-09T06:22:02.126Z,101.07
2023-05-09T06:23:11.275Z,102.78
2023-05-09T06:24:20.458Z,99.6
2023-05-09T06:25:29.617Z,102.53
2023-05-09T06:26:37.813Z,103.75
2023-05-09T06:27:47.008Z,101.07
2023-05-09T06:28:56.167Z,103.02
2023-05-09T06:30:05.317Z,99.6
2023-05-09T06:31:14.497Z,101.07
2023-05-09T06:32:23.674Z,104.24
2023-05-09T06:33:32.836Z,104
2023-05-09T06:34:42.003Z,104.98
2023-05-09T06:35:51.202Z,102.78
2023-05-09T06:37:00.367Z,104.49
2023-05-09T06:38:09.546Z,108.39
2023-05-09T06:39:18.710Z,105.46
2023-05-09T06:40:27.872Z,105.22
2023-05-09T06:41:36.078Z,104.98
2023-05-09T06:42:45.240Z,104.73
2023-05-09T06:43:54.493Z,104
2023-05-09T06:45:03.572Z,107.42
2023-05-09T06:46:12.750Z,104.98
2023-05-09T06:47:21.919Z,107.66
2023-05-09T06:48:30.130Z,107.17
2023-05-09T06:49:38.308Z,106.93
2023-05-09T06:50:47.481Z,103.51
2023-05-09T06:51:56.737Z,108.39
2023-05-09T06:53:05.820Z,108.15
2023-05-09T06:54:15.006Z,107.17
2023-05-09T06:55:24.170Z,106.44
2023-05-09T06:56:33.337Z,106.44
2023-05-09T06:57:42.509Z,106.68
2023-05-09T07:00:00.866Z,106.44
2023-05-09T07:01:10.041Z,106.68
2023-05-09T07:02:19.210Z,105.22
2023-05-09T07:03:28.386Z,107.17
2023-05-09T07:05:46.721Z,107.42
2023-05-09T07:06:54.978Z,104.24
2023-05-09T07:08:03.106Z,104.49
2023-05-09T07:09:12.280Z,105.71
2023-05-09T07:10:21.450Z,106.44
2023-05-09T07:11:30.622Z,106.44
2023-05-09T07:12:39.822Z,106.68
2023-05-09T07:13:48.966Z,104.98
2023-05-09T07:14:58.134Z,105.95
2023-05-09T07:16:07.305Z,108.39
2023-05-09T07:17:16.483Z,108.88
2023-05-09T07:18:24.670Z,108.88
2023-05-09T07:19:32.867Z,106.2
2023-05-09T07:20:42.033Z,107.91
2023-05-09T07:21:51.205Z,108.39
2023-05-09T07:23:00.375Z,105.71
2023-05-09T07:24:09.550Z,107.66
2023-05-09T07:25:18.722Z,106.68
2023-05-09T07:26:27.888Z,107.17
2023-05-09T07:57:04.608Z,101.31
2023-05-09T07:58:13.781Z,108.15
2023-05-09T07:59:22.950Z,106.93
2023-05-09T08:00:32.128Z,105.46
2023-05-09T08:01:41.290Z,101.07
2023-05-09T08:02:50.455Z,98.87
2023-05-09T08:03:59.625Z,100.83
2023-05-09T08:05:08.831Z,99.85
2023-05-09T08:06:17.972Z,100.09
2023-05-09T08:07:27.146Z,101.07
2023-05-09T08:08:36.319Z,101.56
2023-05-09T08:09:45.505Z,100.58
2023-05-09T08:10:54.669Z,99.85
2023-05-09T08:12:03.844Z,100.09
2023-05-09T08:13:13.010Z,97.9
2023-05-09T08:14:22.188Z,98.87
2023-05-09T08:15:31.350Z,98.38
2023-05-09T08:16:40.551Z,99.12
2023-05-09T08:17:49.715Z,100.34
2023-05-09T08:18:58.872Z,99.12
2023-05-09T08:20:07.086Z,99.85
2023-05-09T08:21:15.269Z,102.05
2023-05-09T08:22:24.428Z,102.05
2023-05-09T08:23:33.612Z,103.75
2023-05-09T08:24:42.778Z,99.12
2023-05-09T08:25:51.953Z,99.6
2023-05-09T08:27:01.125Z,99.36
2023-05-09T08:28:10.299Z,104.98
2023-05-09T08:29:19.473Z,101.8
2023-05-09T08:30:28.637Z,101.8
2023-05-09T08:31:37.812Z,101.8
2023-05-09T08:32:47.026Z,104.73
2023-05-09T08:33:56.157Z,106.44
2023-05-09T08:35:05.322Z,104.49
2023-05-09T08:36:13.550Z,104.49
2023-05-09T08:37:22.687Z,105.22
2023-05-09T08:38:31.856Z,105.22
2023-05-09T08:39:41.027Z,104.24
2023-05-09T08:41:59.388Z,106.44
2023-05-09T08:43:08.555Z,105.22
2023-05-09T08:44:16.762Z,105.95
2023-05-09T08:45:24.953Z,113.52
2023-05-09T08:46:34.108Z,105.22
2023-05-09T08:47:42.306Z,107.66
2023-05-09T08:48:51.459Z,105.46
2023-05-09T08:50:00.752Z,104.49
2023-05-09T08:51:09.821Z,102.53
2023-05-09T08:52:18.997Z,103.27
2023-05-09T08:53:28.186Z,104.49
2023-05-09T08:54:37.348Z,104.98
2023-05-09T08:55:46.512Z,106.44
2023-05-09T08:56:55.682Z,104
2023-05-09T08:58:04.892Z,105.22
2023-05-09T08:59:14.027Z,106.68
2023-05-09T09:00:23.215Z,102.78
2023-05-09T09:01:32.411Z,104.24
2023-05-09T09:02:40.558Z,101.8
2023-05-09T09:03:49.747Z,102.78
2023-05-09T09:04:58.908Z,106.44
2023-05-09T09:06:08.079Z,104.98
2023-05-09T09:07:17.249Z,106.44
2023-05-09T09:08:26.416Z,107.66
2023-05-09T09:09:35.609Z,104
2023-05-09T09:10:44.798Z,105.95
2023-05-09T09:11:53.957Z,108.64
2023-05-09T09:13:03.122Z,106.2
2023-05-09T09:14:12.288Z,107.66
2023-05-09T09:15:21.456Z,106.44
2023-05-09T09:16:30.638Z,105.71
2023-05-09T09:17:38.816Z,106.44
2023-05-09T09:18:48.106Z,104.24
2023-05-09T09:19:57.152Z,105.46
2023-05-09T09:21:06.338Z,106.44
2023-05-09T09:22:15.510Z,106.2
2023-05-09T09:23:24.694Z,107.17
2023-05-09T09:24:33.932Z,106.68
2023-05-09T09:25:43.024Z,104
2023-05-09T09:26:52.202Z,104.24
2023-05-09T09:28:01.378Z,104.24
2023-05-09T09:29:10.566Z,106.2
2023-05-09T09:30:19.718Z,106.68
2023-05-09T09:31:28.890Z,104.98
2023-05-09T09:32:37.148Z,108.88
2023-05-09T09:33:46.264Z,104.73
2023-05-09T09:34:55.413Z,104.73
2023-05-09T09:36:04.614Z,104.49
2023-05-09T09:37:13.761Z,105.95
2023-05-09T09:38:22.952Z,104.98
2023-05-09T09:39:32.134Z,104.49
2023-05-09T09:40:41.348Z,106.68
2023-05-09T09:41:50.462Z,104
2023-05-09T09:42:59.623Z,107.66
2023-05-09T09:44:07.830Z,105.22
2023-05-09T09:45:16.053Z,104.98
2023-05-09T09:46:25.197Z,104.49
2023-05-09T09:47:34.356Z,106.2
2023-05-09T09:48:43.563Z,106.44
2023-05-09T09:49:52.736Z,104.24
2023-05-09T09:51:01.867Z,105.71
2023-05-09T09:52:11.045Z,103.27
2023-05-09T09:53:20.233Z,104.73
2023-05-09T09:54:29.384Z,105.22
2023-05-09T09:55:38.563Z,104
2023-05-09T09:56:47.757Z,105.46
2023-05-09T09:57:56.913Z,102.78
2023-05-09T09:59:06.075Z,103.02
2023-05-09T10:00:14.271Z,104.98
2023-05-09T10:01:23.447Z,105.71
2023-05-09T10:02:32.603Z,104.49
2023-05-09T10:03:41.780Z,103.27
2023-05-09T10:04:50.971Z,103.75
2023-05-09T10:06:00.161Z,103.27
2023-05-09T10:07:09.332Z,105.22
2023-05-09T10:08:18.471Z,102.53
2023-05-09T10:09:27.663Z,103.75
2023-05-09T10:10:36.808Z,104.49
2023-05-09T10:11:45.982Z,105.71
2023-05-09T10:12:55.151Z,105.71
2023-05-09T10:14:04.357Z,103.75
2023-05-09T10:15:12.572Z,105.71
2023-05-09T10:16:20.713Z,105.22
2023-05-09T10:17:28.915Z,103.51
2023-05-09T10:18:37.233Z,104
2023-05-09T10:19:46.425Z,105.95
2023-05-09T10:20:55.506Z,103.75
2023-05-09T10:22:04.764Z,104.98
2023-05-09T10:23:13.938Z,105.71
2023-05-09T10:24:22.976Z,105.22
2023-05-09T10:25:32.315Z,106.2
2023-05-09T10:26:41.459Z,106.44
2023-05-09T10:27:50.625Z,107.42
2023-05-09T10:28:59.646Z,105.95
2023-05-09T10:30:08.814Z,106.93
2023-05-09T10:31:18.188Z,108.88
2023-05-09T10:32:27.326Z,108.88
2023-05-09T10:33:35.511Z,105.22
2023-05-09T10:34:44.522Z,104.98
2023-05-09T10:35:53.807Z,104.24
2023-05-09T10:37:02.870Z,105.95
2023-05-09T10:38:12.041Z,104.73
2023-05-09T10:39:21.393Z,104.98
2023-05-09T10:40:29.558Z,106.2
2023-05-09T10:41:38.803Z,104.49
2023-05-09T10:42:46.784Z,106.93
2023-05-09T10:43:56.109Z,102.78
2023-05-09T10:45:05.178Z,104.98
2023-05-09T10:46:14.461Z,104.73
2023-05-09T10:47:23.640Z,105.22
2023-05-09T10:48:32.796Z,101.8
2023-05-09T10:49:41.847Z,103.51
2023-05-09T10:50:51.073Z,104.24
2023-05-09T10:52:00.180Z,104.73
2023-05-09T10:53:09.363Z,106.44
2023-05-09T10:54:18.679Z,106.93
2023-05-09T10:55:27.680Z,104.98
2023-05-09T10:56:36.988Z,104.49
2023-05-09T10:57:45.125Z,104.49
2023-05-09T10:58:54.314Z,105.46
2023-05-09T11:00:03.516Z,103.75
2023-05-09T11:01:12.650Z,104.24
2023-05-09T11:02:21.873Z,105.71
2023-05-09T11:03:30.928Z,104
2023-05-09T11:04:40.204Z,100.34
2023-05-09T11:05:49.315Z,103.27
2023-05-09T11:06:58.522Z,97.9
2023-05-09T11:08:07.693Z,102.53
2023-05-09T11:09:16.767Z,94.72
2023-05-09T11:10:26.027Z,98.14
2023-05-09T11:11:35.096Z,96.19
2023-05-09T11:12:43.436Z,96.19
2023-05-09T11:13:52.466Z,97.16
2023-05-09T11:15:01.710Z,97.65
2023-05-09T11:16:10.935Z,95.7
2023-05-09T11:17:20.049Z,98.87
2023-05-09T11:18:29.280Z,101.56
2023-05-09T11:19:38.326Z,99.85
2023-05-09T11:20:47.492Z,99.85
2023-05-09T11:21:56.673Z,101.56
2023-05-09T11:23:05.830Z,102.78
2023-05-09T11:24:15.029Z,103.02
2023-05-09T11:25:24.191Z,106.2
2023-05-09T11:26:33.379Z,105.71
2023-05-09T11:27:41.543Z,104.73
2023-05-09T11:28:49.743Z,104.73
2023-05-09T11:29:58.128Z,106.44
2023-05-09T11:31:06.222Z,105.95
2023-05-09T11:32:15.378Z,107.66
2023-05-09T11:33:24.500Z,104.24
2023-05-09T11:34:33.801Z,104.73
2023-05-09T11:35:43.020Z,106.2
2023-05-09T11:36:52.078Z,105.71
2023-05-09T11:38:01.264Z,104.49
2023-05-09T11:39:10.433Z,105.71
2023-05-09T11:40:19.609Z,120.36
2023-05-09T11:41:28.737Z,107.17
2023-05-09T11:42:37.946Z,105.95
2023-05-09T11:43:47.101Z,105.95
2023-05-09T11:44:56.310Z,106.68
2023-05-09T11:46:04.389Z,105.71
2023-05-09T11:48:22.751Z,105.46
2023-05-09T11:49:31.954Z,105.22
2023-05-09T11:51:49.277Z,110.1
2023-05-09T11:52:57.588Z,108.39
2023-05-09T11:54:05.854Z,107.17
2023-05-09T11:55:15.003Z,109.37
2023-05-09T11:56:24.036Z,106.2
2023-05-09T11:57:33.291Z,107.17
2023-05-09T11:58:42.370Z,106.68
2023-05-09T11:59:51.628Z,108.88
2023-05-09T12:01:00.766Z,103.02
2023-05-09T12:02:10.099Z,105.22
2023-05-09T12:03:19.117Z,106.68
2023-05-09T12:04:27.273Z,100.34
2023-05-09T12:05:36.503Z,99.36
2023-05-09T12:06:44.665Z,99.6
2023-05-09T12:07:53.840Z,96.43
2023-05-09T12:09:02.982Z,96.92
2023-05-09T12:10:12.144Z,92.52
2023-05-09T12:12:30.464Z,94.23
2023-05-09T12:13:39.643Z,95.21
2023-05-09T12:14:48.815Z,96.67
2023-05-09T12:15:57.989Z,99.12
2023-05-09T12:17:07.273Z,99.12
2023-05-09T12:18:16.337Z,95.94
2023-05-09T12:19:25.553Z,97.41
2023-05-09T12:20:34.706Z,98.14
2023-05-09T12:21:43.894Z,98.87
2023-05-09T12:22:52.031Z,101.07
2023-05-09T12:24:01.216Z,102.53
2023-05-09T12:25:10.488Z,101.56
2023-05-09T12:26:19.547Z,99.6
2023-05-09T12:27:28.768Z,98.87
2023-05-09T12:28:36.917Z,99.6
2023-05-09T12:29:46.084Z,101.31
2023-05-09T12:30:54.422Z,106.44
2023-05-09T12:32:03.449Z,103.02
2023-05-09T12:33:12.620Z,103.27
2023-05-09T12:34:21.804Z,101.07
2023-05-09T12:35:30.978Z,104.49
2023-05-09T12:36:40.198Z,103.27
2023-05-09T12:37:49.305Z,103.27
2023-05-09T12:38:58.598Z,101.8
2023-05-09T12:40:07.670Z,102.29
2023-05-09T12:41:16.884Z,101.8
2023-05-09T12:42:26.000Z,104.49
2023-05-09T12:43:35.374Z,103.75
2023-05-09T12:44:44.343Z,102.53
2023-05-09T12:45:52.532Z,102.53
2023-05-09T12:47:01.705Z,100.58
2023-05-09T12:48:10.873Z,103.27
2023-05-09T12:49:20.279Z,102.05
2023-05-09T12:50:29.290Z,102.53
2023-05-09T12:51:38.398Z,101.56
2023-05-09T12:52:47.625Z,102.78
2023-05-09T12:53:56.848Z,101.31
2023-05-09T12:55:06.071Z,103.27
2023-05-09T12:56:15.170Z,104.98
2023-05-09T12:57:24.455Z,103.27
2023-05-09T12:58:33.563Z,101.8
2023-05-09T12:59:42.696Z,103.51
2023-05-09T13:00:51.912Z,104
2023-05-09T13:02:01.117Z,104.49
2023-05-09T13:03:09.155Z,105.95
2023-05-09T13:04:17.441Z,104.98
2023-05-09T13:05:25.558Z,103.75
2023-05-09T13:06:33.811Z,106.2
2023-05-09T13:07:43.010Z,107.17
2023-05-09T13:08:52.139Z,104.73
2023-05-09T13:11:10.405Z,105.46
2023-05-09T13:12:19.578Z,103.27
2023-05-09T13:13:28.754Z,105.46
2023-05-09T13:14:37.922Z,105.22
2023-05-09T13:15:47.110Z,103.51
2023-05-09T13:16:56.278Z,104.98
2023-05-09T13:18:05.435Z,105.71
2023-05-09T13:19:14.624Z,102.29
2023-05-09T13:20:23.808Z,104.49
2023-05-09T13:21:31.988Z,103.75
2023-05-09T13:22:41.176Z,105.22
2023-05-09T13:23:50.347Z,104.24
2023-05-09T13:24:59.523Z,107.42
2023-05-09T13:26:08.667Z,104.49
2023-05-09T13:27:17.837Z,104.49
2023-05-09T13:28:27.016Z,104
2023-05-09T13:29:35.205Z,104.98
2023-05-09T13:30:43.394Z,103.27
2023-05-09T13:31:52.598Z,103.75
2023-05-09T13:33:01.752Z,104.73
2023-05-09T13:34:10.949Z,105.95
2023-05-09T13:35:20.093Z,105.71
2023-05-09T13:36:29.347Z,104.49
2023-05-09T13:37:38.601Z,105.22
2023-05-09T13:38:47.633Z,108.64
2023-05-09T13:39:56.784Z,106.2
2023-05-09T13:41:06.013Z,106.44
2023-05-09T13:42:15.116Z,104
2023-05-09T13:43:24.296Z,104.73
2023-05-09T13:44:33.466Z,103.75
2023-05-09T13:45:41.694Z,104.73
2023-05-09T13:46:50.874Z,105.22
2023-05-09T13:47:59.990Z,104.98
2023-05-09T13:49:09.179Z,104.24
2023-05-09T13:50:18.342Z,105.22
2023-05-09T13:51:27.505Z,102.78
2023-05-09T13:52:35.711Z,103.51
2023-05-09T13:53:43.915Z,104.49
2023-05-09T13:54:53.068Z,102.53
2023-05-09T13:56:02.247Z,104.98
2023-05-09T13:57:11.433Z,103.51
2023-05-09T13:58:20.580Z,105.46
2023-05-09T13:59:29.759Z,106.44
2023-05-09T14:02:57.311Z,109.37
2023-05-09T14:04:06.461Z,106.44
2023-05-09T14:05:15.624Z,104.49
2023-05-09T14:06:24.797Z,104
2023-05-09T14:07:32.995Z,104.49
2023-05-09T14:08:41.195Z,107.91
2023-05-09T14:10:58.577Z,109.86
2023-05-09T14:12:07.736Z,157.47
2023-05-09T14:13:16.888Z,159.42
2023-05-09T14:14:26.077Z,165.77
2023-05-09T14:15:35.248Z,166.01
2023-05-09T14:16:44.439Z,165.03
2023-05-09T14:17:53.576Z,163.33
2023-05-09T14:19:02.769Z,166.01
2023-05-09T14:20:11.937Z,166.5
2023-05-09T14:21:21.091Z,166.25
2023-05-09T14:22:30.297Z,165.03
2023-05-09T14:23:39.482Z,165.28
2023-05-09T14:24:47.632Z,163.57
2023-05-09T14:25:56.809Z,164.79
2023-05-09T14:28:15.200Z,160.88
2023-05-09T14:29:23.346Z,161.62
2023-05-09T14:30:32.518Z,162.84
2023-05-09T14:31:40.707Z,162.1
2023-05-09T14:32:49.888Z,161.86
2023-05-09T14:33:59.056Z,162.59
2023-05-09T14:35:08.218Z,163.33
2023-05-09T14:36:17.411Z,162.35
2023-05-09T14:37:26.554Z,161.86
2023-05-09T14:38:35.749Z,161.13
2023-05-09T14:39:44.921Z,161.86
2023-05-09T14:40:53.107Z,161.62
2023-05-09T14:42:01.292Z,160.88
2023-05-09T14:43:10.479Z,160.15
2023-05-09T14:44:19.644Z,160.64
2023-05-09T14:45:28.808Z,159.42
2023-05-09T14:46:38.011Z,158.69
2023-05-09T14:47:47.166Z,157.71
2023-05-09T14:48:56.341Z,156.98
2023-05-09T14:50:05.502Z,154.29
2023-05-09T14:51:14.662Z,154.54
2023-05-09T14:53:32.102Z,124.26
2023-05-09T14:54:40.247Z,123.04
2023-05-09T14:55:49.451Z,123.77
2023-05-09T14:56:58.630Z,124.02
2023-05-09T14:58:07.742Z,121.58
2023-05-09T14:59:16.926Z,122.55
2023-05-09T15:00:26.135Z,121.33
2023-05-09T15:01:35.269Z,117.18
2023-05-09T15:02:44.445Z,122.55
2023-05-09T15:03:53.686Z,120.11
2023-05-09T15:05:01.810Z,119.87
2023-05-09T15:06:09.999Z,121.82
2023-05-09T15:07:19.156Z,121.82
2023-05-09T15:09:37.565Z,120.11
2023-05-09T15:10:46.683Z,121.58
2023-05-09T15:11:55.917Z,119.38
2023-05-09T15:13:05.036Z,121.33
2023-05-09T15:14:14.313Z,118.89
2023-05-09T15:15:23.391Z,117.43
2023-05-09T15:16:32.605Z,118.4
2023-05-09T15:17:41.714Z,120.6
2023-05-09T15:18:50.950Z,119.14
2023-05-09T15:20:00.073Z,121.09
2023-05-09T15:21:08.418Z,119.38
2023-05-09T15:22:17.421Z,120.84
2023-05-09T15:23:26.606Z,117.91
2023-05-09T15:24:35.771Z,121.58